Aviation Digital Data Service (ADDS)

Output produced by METARs form (1504 UTC 19 January 2017)
found at http://aviationweather.gov/adds/metars/
 
KMSS 191503Z 1915/2012 24007KT P6SM SCT008 OVC030 
     TEMPO 1915/1918 5SM BR OVC007 
     FM191800 25008KT P6SM OVC010 
     FM192200 26004KT P6SM OVC015 
     FM200400 00000KT 3SM BR OVC008